South Bloomfield, Ohio
Current Conditions -  °F | °C
As of 10:55 AM on Friday 21 Nov 2014 (Local Time) from KLCK Reporting Station
Clear Clear  
Wind Chill: 21°   Ceiling: Unl
Heat Index: 21°   Visibility: 10mi
Dew Point: 10°   Wind: 0mph
Humidity: 61%   Direction: NA
Pressure: 30.52"   Gusts: NA
Location:  39.7281°N, 82.9134°W
Report Text: KLCK 211555Z AUTO 00000KT 10SM CLR M06/M12 A3052 RMK AO2 T10591123
Loading
Personal Weather Stations






























Interactive Weather Map New forecast layout! Learn more

10-Day Weather Forecast

Advertisements
Track Severe Weather on mobile